sensor_id;sensor_type;location;lat;lon;timestamp;pressure;altitude;pressure_sealevel;temperature;humidity
34961;BME280;30789;52.030;7.110;2023-05-02T00:00:37;101055.25;;;11.00;77.31
34961;BME280;30789;52.030;7.110;2023-05-02T00:03:04;101049.75;;;11.04;77.11
34961;BME280;30789;52.030;7.110;2023-05-02T00:05:30;101046.22;;;11.07;77.33
34961;BME280;30789;52.030;7.110;2023-05-02T00:07:57;101047.41;;;11.06;77.29
34961;BME280;30789;52.030;7.110;2023-05-02T00:10:25;101045.22;;;11.25;76.66
34961;BME280;30789;52.030;7.110;2023-05-02T00:12:51;101047.06;;;11.11;77.07
34961;BME280;30789;52.030;7.110;2023-05-02T00:15:18;101059.19;;;11.03;77.16
34961;BME280;30789;52.030;7.110;2023-05-02T00:17:44;101059.25;;;11.06;77.00
34961;BME280;30789;52.030;7.110;2023-05-02T00:20:11;101067.19;;;11.11;76.76
34961;BME280;30789;52.030;7.110;2023-05-02T00:22:38;101064.81;;;11.13;76.95
34961;BME280;30789;52.030;7.110;2023-05-02T00:25:06;101070.94;;;10.96;77.58
34961;BME280;30789;52.030;7.110;2023-05-02T00:27:34;101074.13;;;10.98;77.57
34961;BME280;30789;52.030;7.110;2023-05-02T00:30:01;101077.19;;;10.90;78.15
34961;BME280;30789;52.030;7.110;2023-05-02T00:32:28;101070.00;;;10.82;79.07
34961;BME280;30789;52.030;7.110;2023-05-02T00:34:54;101074.09;;;10.62;80.44
34961;BME280;30789;52.030;7.110;2023-05-02T00:37:25;101071.03;;;10.70;80.64
34961;BME280;30789;52.030;7.110;2023-05-02T00:39:51;101078.78;;;10.58;81.17
34961;BME280;30789;52.030;7.110;2023-05-02T00:42:18;101074.75;;;10.85;80.15
34961;BME280;30789;52.030;7.110;2023-05-02T00:44:46;101077.53;;;10.85;80.04
34961;BME280;30789;52.030;7.110;2023-05-02T00:47:13;101069.19;;;10.81;80.24
34961;BME280;30789;52.030;7.110;2023-05-02T00:49:40;101082.66;;;10.86;80.14
34961;BME280;30789;52.030;7.110;2023-05-02T00:52:07;101085.84;;;10.88;80.06
34961;BME280;30789;52.030;7.110;2023-05-02T00:54:35;101080.00;;;10.97;79.97
34961;BME280;30789;52.030;7.110;2023-05-02T00:57:02;101084.13;;;10.77;80.87
34961;BME280;30789;52.030;7.110;2023-05-02T00:59:28;101079.31;;;11.03;80.13
34961;BME280;30789;52.030;7.110;2023-05-02T01:02:04;101080.13;;;11.07;80.11
34961;BME280;30789;52.030;7.110;2023-05-02T01:04:41;101082.78;;;10.97;80.36
34961;BME280;30789;52.030;7.110;2023-05-02T01:07:20;101079.69;;;11.05;80.53
34961;BME280;30789;52.030;7.110;2023-05-02T01:09:58;101080.94;;;10.75;81.60
34961;BME280;30789;52.030;7.110;2023-05-02T01:12:29;101069.31;;;10.88;81.05
34961;BME280;30789;52.030;7.110;2023-05-02T01:14:58;101075.50;;;10.82;81.54
34961;BME280;30789;52.030;7.110;2023-05-02T01:17:31;101079.91;;;10.86;81.54
34961;BME280;30789;52.030;7.110;2023-05-02T01:20:02;101083.28;;;10.73;82.09
34961;BME280;30789;52.030;7.110;2023-05-02T01:22:30;101080.06;;;10.67;82.62
34961;BME280;30789;52.030;7.110;2023-05-02T01:25:07;101080.28;;;10.85;81.57
34961;BME280;30789;52.030;7.110;2023-05-02T01:27:44;101078.44;;;10.96;80.90
34961;BME280;30789;52.030;7.110;2023-05-02T01:30:16;101086.16;;;10.83;81.57
34961;BME280;30789;52.030;7.110;2023-05-02T01:32:45;101088.06;;;10.79;81.90
34961;BME280;30789;52.030;7.110;2023-05-02T01:35:14;101091.09;;;10.67;82.16
34961;BME280;30789;52.030;7.110;2023-05-02T01:37:42;101090.69;;;10.69;82.16
34961;BME280;30789;52.030;7.110;2023-05-02T01:40:12;101097.78;;;10.66;82.59
34961;BME280;30789;52.030;7.110;2023-05-02T01:42:39;101099.78;;;10.69;82.55
34961;BME280;30789;52.030;7.110;2023-05-02T01:45:08;101097.91;;;10.77;81.97
34961;BME280;30789;52.030;7.110;2023-05-02T01:47:38;101095.63;;;10.86;82.09
34961;BME280;30789;52.030;7.110;2023-05-02T01:50:07;101094.69;;;10.71;82.09
34961;BME280;30789;52.030;7.110;2023-05-02T01:52:35;101098.44;;;10.89;81.32
34961;BME280;30789;52.030;7.110;2023-05-02T01:55:04;101092.44;;;10.80;81.96
34961;BME280;30789;52.030;7.110;2023-05-02T01:57:31;101099.25;;;10.90;81.36
34961;BME280;30789;52.030;7.110;2023-05-02T01:59:58;101102.75;;;10.87;81.74
34961;BME280;30789;52.030;7.110;2023-05-02T02:02:26;101110.69;;;10.92;81.45
34961;BME280;30789;52.030;7.110;2023-05-02T02:04:56;101099.47;;;10.78;81.63
34961;BME280;30789;52.030;7.110;2023-05-02T02:07:23;101097.34;;;10.64;82.48
34961;BME280;30789;52.030;7.110;2023-05-02T02:09:49;101095.00;;;10.66;82.39
34961;BME280;30789;52.030;7.110;2023-05-02T02:12:23;101111.63;;;10.73;82.09
34961;BME280;30789;52.030;7.110;2023-05-02T02:14:55;101109.34;;;10.79;81.40
34961;BME280;30789;52.030;7.110;2023-05-02T02:17:25;101104.63;;;10.79;81.48
34961;BME280;30789;52.030;7.110;2023-05-02T02:19:56;101108.84;;;10.70;81.91
34961;BME280;30789;52.030;7.110;2023-05-02T02:22:27;101105.75;;;10.75;81.76
34961;BME280;30789;52.030;7.110;2023-05-02T02:24:56;101111.09;;;10.94;81.01
34961;BME280;30789;52.030;7.110;2023-05-02T02:27:24;101118.28;;;11.02;80.67
34961;BME280;30789;52.030;7.110;2023-05-02T02:29:51;101119.81;;;10.99;81.03
34961;BME280;30789;52.030;7.110;2023-05-02T02:32:17;101130.94;;;10.73;82.42
34961;BME280;30789;52.030;7.110;2023-05-02T02:34:44;101128.53;;;10.68;82.76
34961;BME280;30789;52.030;7.110;2023-05-02T02:37:16;101133.28;;;11.04;81.43
34961;BME280;30789;52.030;7.110;2023-05-02T02:39:57;101131.09;;;10.87;82.24
34961;BME280;30789;52.030;7.110;2023-05-02T02:42:32;101120.09;;;10.87;81.75
34961;BME280;30789;52.030;7.110;2023-05-02T02:45:11;101119.69;;;10.85;82.01
34961;BME280;30789;52.030;7.110;2023-05-02T02:47:45;101124.34;;;10.81;82.09
34961;BME280;30789;52.030;7.110;2023-05-02T02:50:18;101129.97;;;10.88;82.51
34961;BME280;30789;52.030;7.110;2023-05-02T02:53:04;101132.09;;;11.02;81.82
34961;BME280;30789;52.030;7.110;2023-05-02T02:55:37;101137.06;;;10.89;82.37
34961;BME280;30789;52.030;7.110;2023-05-02T02:58:14;101138.25;;;10.92;82.30
34961;BME280;30789;52.030;7.110;2023-05-02T03:00:42;101146.53;;;10.92;82.28
34961;BME280;30789;52.030;7.110;2023-05-02T03:03:10;101141.75;;;10.89;82.72
34961;BME280;30789;52.030;7.110;2023-05-02T03:05:39;101151.16;;;10.84;83.01
34961;BME280;30789;52.030;7.110;2023-05-02T03:08:08;101146.81;;;10.83;82.70
34961;BME280;30789;52.030;7.110;2023-05-02T03:10:35;101149.63;;;10.87;82.81
34961;BME280;30789;52.030;7.110;2023-05-02T03:13:01;101160.19;;;10.81;83.10
34961;BME280;30789;52.030;7.110;2023-05-02T03:15:54;101169.00;;;10.94;82.91
34961;BME280;30789;52.030;7.110;2023-05-02T03:18:27;101164.16;;;10.84;83.38
34961;BME280;30789;52.030;7.110;2023-05-02T03:20:53;101170.63;;;10.69;84.76
34961;BME280;30789;52.030;7.110;2023-05-02T03:23:22;101174.19;;;10.69;85.55
34961;BME280;30789;52.030;7.110;2023-05-02T03:25:49;101177.38;;;10.71;85.30
34961;BME280;30789;52.030;7.110;2023-05-02T03:28:15;101173.31;;;10.62;85.67
34961;BME280;30789;52.030;7.110;2023-05-02T03:30:42;101177.75;;;10.70;85.34
34961;BME280;30789;52.030;7.110;2023-05-02T03:33:08;101184.16;;;10.77;85.18
34961;BME280;30789;52.030;7.110;2023-05-02T03:35:35;101184.25;;;10.84;84.91
34961;BME280;30789;52.030;7.110;2023-05-02T03:38:01;101196.91;;;10.59;85.89
34961;BME280;30789;52.030;7.110;2023-05-02T03:40:29;101191.88;;;10.38;86.33
34961;BME280;30789;52.030;7.110;2023-05-02T03:42:56;101211.81;;;10.28;85.57
34961;BME280;30789;52.030;7.110;2023-05-02T03:45:22;101209.69;;;9.99;85.55
34961;BME280;30789;52.030;7.110;2023-05-02T03:47:49;101220.50;;;10.08;85.39
34961;BME280;30789;52.030;7.110;2023-05-02T03:50:15;101221.34;;;10.12;84.85
34961;BME280;30789;52.030;7.110;2023-05-02T03:52:42;101224.69;;;10.02;84.99
34961;BME280;30789;52.030;7.110;2023-05-02T03:55:09;101223.41;;;9.96;85.50
34961;BME280;30789;52.030;7.110;2023-05-02T03:57:37;101233.00;;;9.83;85.72
34961;BME280;30789;52.030;7.110;2023-05-02T04:00:04;101238.75;;;9.97;84.99
34961;BME280;30789;52.030;7.110;2023-05-02T04:02:31;101232.72;;;9.69;85.09
34961;BME280;30789;52.030;7.110;2023-05-02T04:04:58;101236.38;;;9.95;83.74
34961;BME280;30789;52.030;7.110;2023-05-02T04:07:24;101242.63;;;9.92;82.32
34961;BME280;30789;52.030;7.110;2023-05-02T04:09:51;101245.72;;;10.10;81.75
34961;BME280;30789;52.030;7.110;2023-05-02T04:12:17;101251.72;;;9.96;81.72
34961;BME280;30789;52.030;7.110;2023-05-02T04:14:45;101246.59;;;9.95;82.13
34961;BME280;30789;52.030;7.110;2023-05-02T04:17:12;101243.31;;;10.31;80.91
34961;BME280;30789;52.030;7.110;2023-05-02T04:19:39;101249.31;;;10.14;80.96
34961;BME280;30789;52.030;7.110;2023-05-02T04:22:06;101250.69;;;10.04;81.12
34961;BME280;30789;52.030;7.110;2023-05-02T04:24:32;101258.09;;;10.00;81.42
34961;BME280;30789;52.030;7.110;2023-05-02T04:26:59;101250.22;;;10.21;80.30
34961;BME280;30789;52.030;7.110;2023-05-02T04:29:26;101252.69;;;10.26;79.78
34961;BME280;30789;52.030;7.110;2023-05-02T04:31:53;101252.25;;;10.24;79.03
34961;BME280;30789;52.030;7.110;2023-05-02T04:34:20;101259.84;;;10.31;77.92
34961;BME280;30789;52.030;7.110;2023-05-02T04:36:47;101268.91;;;10.31;77.38
34961;BME280;30789;52.030;7.110;2023-05-02T04:39:13;101269.94;;;10.23;77.38
34961;BME280;30789;52.030;7.110;2023-05-02T04:41:40;101275.56;;;10.30;76.34
34961;BME280;30789;52.030;7.110;2023-05-02T04:44:07;101276.50;;;9.96;76.98
34961;BME280;30789;52.030;7.110;2023-05-02T04:46:33;101279.13;;;10.08;76.21
34961;BME280;30789;52.030;7.110;2023-05-02T04:49:01;101286.66;;;10.34;75.66
34961;BME280;30789;52.030;7.110;2023-05-02T04:51:27;101292.66;;;10.17;75.61
34961;BME280;30789;52.030;7.110;2023-05-02T04:53:55;101298.63;;;10.22;75.26
34961;BME280;30789;52.030;7.110;2023-05-02T04:56:22;101296.66;;;10.00;76.36
34961;BME280;30789;52.030;7.110;2023-05-02T04:58:48;101311.81;;;9.91;77.06
34961;BME280;30789;52.030;7.110;2023-05-02T05:01:15;101311.16;;;9.97;76.97
34961;BME280;30789;52.030;7.110;2023-05-02T05:03:42;101309.84;;;9.91;77.18
34961;BME280;30789;52.030;7.110;2023-05-02T05:06:10;101314.28;;;9.96;77.19
34961;BME280;30789;52.030;7.110;2023-05-02T05:08:36;101319.16;;;10.06;76.95
34961;BME280;30789;52.030;7.110;2023-05-02T05:11:04;101323.19;;;10.08;77.42
34961;BME280;30789;52.030;7.110;2023-05-02T05:13:30;101333.47;;;10.11;77.30
34961;BME280;30789;52.030;7.110;2023-05-02T05:15:57;101332.69;;;10.11;77.17
34961;BME280;30789;52.030;7.110;2023-05-02T05:18:23;101338.53;;;10.28;76.83
34961;BME280;30789;52.030;7.110;2023-05-02T05:20:50;101338.94;;;10.30;76.77
34961;BME280;30789;52.030;7.110;2023-05-02T05:23:18;101352.41;;;10.35;76.74
34961;BME280;30789;52.030;7.110;2023-05-02T05:25:44;101352.50;;;10.20;77.06
34961;BME280;30789;52.030;7.110;2023-05-02T05:28:11;101351.94;;;10.11;77.15
34961;BME280;30789;52.030;7.110;2023-05-02T05:30:37;101351.50;;;10.09;77.10
34961;BME280;30789;52.030;7.110;2023-05-02T05:33:04;101365.66;;;10.07;77.80
34961;BME280;30789;52.030;7.110;2023-05-02T05:35:31;101364.47;;;9.89;78.69
34961;BME280;30789;52.030;7.110;2023-05-02T05:37:57;101370.06;;;9.74;80.41
34961;BME280;30789;52.030;7.110;2023-05-02T05:40:25;101377.16;;;9.56;81.77
34961;BME280;30789;52.030;7.110;2023-05-02T05:42:52;101390.56;;;9.57;83.31
34961;BME280;30789;52.030;7.110;2023-05-02T05:45:18;101396.00;;;9.04;83.25
34961;BME280;30789;52.030;7.110;2023-05-02T05:47:45;101398.28;;;9.17;83.90
34961;BME280;30789;52.030;7.110;2023-05-02T05:50:11;101397.31;;;9.10;83.83
34961;BME280;30789;52.030;7.110;2023-05-02T05:52:38;101402.84;;;8.79;83.72
34961;BME280;30789;52.030;7.110;2023-05-02T05:55:05;101415.88;;;8.97;83.20
34961;BME280;30789;52.030;7.110;2023-05-02T05:57:33;101412.75;;;9.14;82.89
34961;BME280;30789;52.030;7.110;2023-05-02T06:00:00;101427.84;;;9.05;81.44
34961;BME280;30789;52.030;7.110;2023-05-02T06:02:26;101432.56;;;9.04;81.63
34961;BME280;30789;52.030;7.110;2023-05-02T06:04:53;101427.66;;;9.13;80.82
34961;BME280;30789;52.030;7.110;2023-05-02T06:07:19;101430.25;;;8.75;81.07
34961;BME280;30789;52.030;7.110;2023-05-02T06:09:46;101433.63;;;8.84;81.23
34961;BME280;30789;52.030;7.110;2023-05-02T06:12:13;101438.75;;;8.70;81.51
34961;BME280;30789;52.030;7.110;2023-05-02T06:14:41;101443.38;;;8.23;82.88
34961;BME280;30789;52.030;7.110;2023-05-02T06:17:08;101451.84;;;8.61;83.06
34961;BME280;30789;52.030;7.110;2023-05-02T06:19:34;101454.59;;;8.61;81.62
34961;BME280;30789;52.030;7.110;2023-05-02T06:22:01;101461.88;;;8.85;81.04
34961;BME280;30789;52.030;7.110;2023-05-02T06:24:27;101465.00;;;8.68;81.37
34961;BME280;30789;52.030;7.110;2023-05-02T06:26:54;101464.47;;;8.34;80.83
34961;BME280;30789;52.030;7.110;2023-05-02T06:29:20;101477.38;;;8.34;80.87
34961;BME280;30789;52.030;7.110;2023-05-02T06:31:48;101479.34;;;8.61;79.98
34961;BME280;30789;52.030;7.110;2023-05-02T06:34:15;101485.38;;;8.39;78.78
34961;BME280;30789;52.030;7.110;2023-05-02T06:36:42;101491.59;;;8.36;79.82
34961;BME280;30789;52.030;7.110;2023-05-02T06:39:08;101493.63;;;8.82;78.42
34961;BME280;30789;52.030;7.110;2023-05-02T06:41:35;101507.53;;;8.89;78.34
34961;BME280;30789;52.030;7.110;2023-05-02T06:44:02;101504.66;;;9.13;77.72
34961;BME280;30789;52.030;7.110;2023-05-02T06:46:28;101512.63;;;8.87;78.42
34961;BME280;30789;52.030;7.110;2023-05-02T06:48:57;101528.50;;;8.94;78.28
34961;BME280;30789;52.030;7.110;2023-05-02T06:51:23;101531.66;;;8.80;78.36
34961;BME280;30789;52.030;7.110;2023-05-02T06:53:50;101536.72;;;8.78;78.79
34961;BME280;30789;52.030;7.110;2023-05-02T06:56:17;101544.31;;;8.69;79.19
34961;BME280;30789;52.030;7.110;2023-05-02T06:58:43;101545.50;;;8.84;78.37
34961;BME280;30789;52.030;7.110;2023-05-02T07:01:10;101548.59;;;8.82;79.12
34961;BME280;30789;52.030;7.110;2023-05-02T07:03:39;101559.53;;;8.66;80.23
34961;BME280;30789;52.030;7.110;2023-05-02T07:06:07;101566.09;;;8.62;80.53
34961;BME280;30789;52.030;7.110;2023-05-02T07:08:33;101570.34;;;8.59;80.27
34961;BME280;30789;52.030;7.110;2023-05-02T07:11:01;101583.34;;;8.75;79.97
34961;BME280;30789;52.030;7.110;2023-05-02T07:13:27;101572.63;;;8.57;79.13
34961;BME280;30789;52.030;7.110;2023-05-02T07:15:54;101580.81;;;8.42;78.94
34961;BME280;30789;52.030;7.110;2023-05-02T07:18:21;101589.44;;;8.68;77.68
34961;BME280;30789;52.030;7.110;2023-05-02T07:20:47;101594.44;;;8.78;76.36
34961;BME280;30789;52.030;7.110;2023-05-02T07:23:15;101594.28;;;8.87;76.47
34961;BME280;30789;52.030;7.110;2023-05-02T07:25:42;101602.16;;;8.88;75.95
34961;BME280;30789;52.030;7.110;2023-05-02T07:28:09;101604.31;;;8.95;75.58
34961;BME280;30789;52.030;7.110;2023-05-02T07:30:35;101593.88;;;9.16;75.26
34961;BME280;30789;52.030;7.110;2023-05-02T07:33:02;101599.81;;;8.75;73.96
34961;BME280;30789;52.030;7.110;2023-05-02T07:35:28;101597.38;;;9.28;73.26
34961;BME280;30789;52.030;7.110;2023-05-02T07:37:55;101608.19;;;9.37;72.34
34961;BME280;30789;52.030;7.110;2023-05-02T07:40:23;101609.53;;;9.27;72.15
34961;BME280;30789;52.030;7.110;2023-05-02T07:42:49;101607.41;;;9.36;73.20
34961;BME280;30789;52.030;7.110;2023-05-02T07:45:16;101615.94;;;9.62;70.50
34961;BME280;30789;52.030;7.110;2023-05-02T07:47:43;101612.19;;;9.86;70.68
34961;BME280;30789;52.030;7.110;2023-05-02T07:50:10;101615.72;;;10.17;69.22
34961;BME280;30789;52.030;7.110;2023-05-02T07:52:37;101621.81;;;10.26;67.31
34961;BME280;30789;52.030;7.110;2023-05-02T07:55:04;101620.97;;;10.42;67.31
34961;BME280;30789;52.030;7.110;2023-05-02T07:57:32;101621.59;;;10.16;67.95
34961;BME280;30789;52.030;7.110;2023-05-02T07:59:58;101624.69;;;10.14;67.89
34961;BME280;30789;52.030;7.110;2023-05-02T08:02:25;101622.66;;;9.96;66.49
34961;BME280;30789;52.030;7.110;2023-05-02T08:04:51;101622.84;;;9.41;68.21
34961;BME280;30789;52.030;7.110;2023-05-02T08:07:18;101626.63;;;10.29;66.71
34961;BME280;30789;52.030;7.110;2023-05-02T08:09:44;101624.81;;;9.87;66.82
34961;BME280;30789;52.030;7.110;2023-05-02T08:12:11;101628.53;;;10.10;66.88
34961;BME280;30789;52.030;7.110;2023-05-02T08:14:39;101635.53;;;10.07;66.89
34961;BME280;30789;52.030;7.110;2023-05-02T08:17:05;101648.25;;;9.65;66.55
34961;BME280;30789;52.030;7.110;2023-05-02T08:19:32;101644.97;;;9.75;67.11
34961;BME280;30789;52.030;7.110;2023-05-02T08:21:58;101644.13;;;10.06;67.30
34961;BME280;30789;52.030;7.110;2023-05-02T08:24:25;101659.59;;;10.26;66.96
34961;BME280;30789;52.030;7.110;2023-05-02T08:26:52;101657.94;;;9.75;66.80
34961;BME280;30789;52.030;7.110;2023-05-02T08:29:18;101655.84;;;10.34;64.20
34961;BME280;30789;52.030;7.110;2023-05-02T08:31:46;101654.31;;;10.36;62.52
34961;BME280;30789;52.030;7.110;2023-05-02T08:34:12;101659.97;;;10.09;62.44
34961;BME280;30789;52.030;7.110;2023-05-02T08:36:39;101663.88;;;9.92;62.69
34961;BME280;30789;52.030;7.110;2023-05-02T08:39:05;101667.50;;;10.27;61.21
34961;BME280;30789;52.030;7.110;2023-05-02T08:41:36;101666.34;;;10.28;61.13
34961;BME280;30789;52.030;7.110;2023-05-02T08:44:05;101668.75;;;10.84;60.62
34961;BME280;30789;52.030;7.110;2023-05-02T08:46:34;101677.81;;;11.03;59.64
34961;BME280;30789;52.030;7.110;2023-05-02T08:49:02;101681.97;;;11.13;57.42
34961;BME280;30789;52.030;7.110;2023-05-02T08:51:29;101682.03;;;10.78;57.25
34961;BME280;30789;52.030;7.110;2023-05-02T08:53:58;101675.84;;;11.04;57.22
34961;BME280;30789;52.030;7.110;2023-05-02T08:56:26;101693.66;;;11.06;56.65
34961;BME280;30789;52.030;7.110;2023-05-02T08:58:53;101697.28;;;10.91;57.10
34961;BME280;30789;52.030;7.110;2023-05-02T09:01:22;101695.44;;;10.61;55.47
34961;BME280;30789;52.030;7.110;2023-05-02T09:03:49;101690.00;;;10.83;56.11
34961;BME280;30789;52.030;7.110;2023-05-02T09:06:19;101695.53;;;11.02;55.27
34961;BME280;30789;52.030;7.110;2023-05-02T09:08:47;101701.44;;;11.42;55.38
34961;BME280;30789;52.030;7.110;2023-05-02T09:11:15;101699.69;;;10.93;54.50
34961;BME280;30789;52.030;7.110;2023-05-02T09:13:42;101701.31;;;11.35;55.12
34961;BME280;30789;52.030;7.110;2023-05-02T09:16:11;101703.00;;;11.40;54.38
34961;BME280;30789;52.030;7.110;2023-05-02T09:18:39;101712.75;;;11.98;53.38
34961;BME280;30789;52.030;7.110;2023-05-02T09:21:08;101711.75;;;11.45;51.41
34961;BME280;30789;52.030;7.110;2023-05-02T09:23:38;101717.28;;;11.64;54.11
34961;BME280;30789;52.030;7.110;2023-05-02T09:26:13;101717.84;;;11.73;51.73
34961;BME280;30789;52.030;7.110;2023-05-02T09:28:41;101711.72;;;11.42;50.87
34961;BME280;30789;52.030;7.110;2023-05-02T09:31:10;101721.84;;;11.57;50.98
34961;BME280;30789;52.030;7.110;2023-05-02T09:33:37;101716.75;;;11.17;48.98
34961;BME280;30789;52.030;7.110;2023-05-02T09:36:04;101725.72;;;11.33;49.25
34961;BME280;30789;52.030;7.110;2023-05-02T09:38:32;101729.31;;;12.21;49.92
34961;BME280;30789;52.030;7.110;2023-05-02T09:41:00;101733.25;;;11.55;47.97
34961;BME280;30789;52.030;7.110;2023-05-02T09:43:28;101753.09;;;12.02;47.98
34961;BME280;30789;52.030;7.110;2023-05-02T09:45:58;101745.91;;;11.75;47.72
34961;BME280;30789;52.030;7.110;2023-05-02T09:48:26;101750.09;;;12.60;47.92
34961;BME280;30789;52.030;7.110;2023-05-02T09:50:52;101749.59;;;12.80;46.01
34961;BME280;30789;52.030;7.110;2023-05-02T09:53:20;101753.47;;;11.78;45.34
34961;BME280;30789;52.030;7.110;2023-05-02T09:55:46;101756.38;;;11.47;47.95
34961;BME280;30789;52.030;7.110;2023-05-02T09:58:21;101754.50;;;12.90;46.74
34961;BME280;30789;52.030;7.110;2023-05-02T10:00:49;101748.03;;;13.75;43.06
34961;BME280;30789;52.030;7.110;2023-05-02T10:03:17;101757.19;;;15.38;41.12
34961;BME280;30789;52.030;7.110;2023-05-02T10:05:45;101755.09;;;14.56;42.40
34961;BME280;30789;52.030;7.110;2023-05-02T10:08:12;101760.03;;;14.26;40.73
34961;BME280;30789;52.030;7.110;2023-05-02T10:10:41;101751.09;;;13.30;42.08
34961;BME280;30789;52.030;7.110;2023-05-02T10:13:12;101758.22;;;13.64;42.78
34961;BME280;30789;52.030;7.110;2023-05-02T10:15:42;101765.19;;;13.21;43.57
34961;BME280;30789;52.030;7.110;2023-05-02T10:18:12;101760.22;;;13.34;43.44
34961;BME280;30789;52.030;7.110;2023-05-02T10:20:43;101777.44;;;12.42;43.89
34961;BME280;30789;52.030;7.110;2023-05-02T10:23:13;101774.41;;;12.73;44.80
34961;BME280;30789;52.030;7.110;2023-05-02T10:25:41;101776.72;;;12.97;43.29
34961;BME280;30789;52.030;7.110;2023-05-02T10:28:08;101784.41;;;12.81;44.20
34961;BME280;30789;52.030;7.110;2023-05-02T10:30:35;101773.97;;;13.60;43.06
34961;BME280;30789;52.030;7.110;2023-05-02T10:33:04;101773.66;;;16.13;38.68
34961;BME280;30789;52.030;7.110;2023-05-02T10:35:31;101773.28;;;16.67;38.31
34961;BME280;30789;52.030;7.110;2023-05-02T10:37:59;101777.63;;;16.30;39.06
34961;BME280;30789;52.030;7.110;2023-05-02T10:40:27;101779.53;;;14.33;39.72
34961;BME280;30789;52.030;7.110;2023-05-02T10:42:54;101777.19;;;14.39;42.05
34961;BME280;30789;52.030;7.110;2023-05-02T10:45:31;101780.94;;;14.64;41.00
34961;BME280;30789;52.030;7.110;2023-05-02T10:48:18;101775.81;;;15.34;40.31
34961;BME280;30789;52.030;7.110;2023-05-02T10:50:46;101788.97;;;14.76;41.00
34961;BME280;30789;52.030;7.110;2023-05-02T10:53:23;101790.19;;;14.82;40.45
34961;BME280;30789;52.030;7.110;2023-05-02T10:56:15;101784.38;;;15.04;40.84
34961;BME280;30789;52.030;7.110;2023-05-02T10:58:43;101782.72;;;15.75;40.67
34961;BME280;30789;52.030;7.110;2023-05-02T11:01:32;101788.69;;;15.84;38.88
34961;BME280;30789;52.030;7.110;2023-05-02T11:04:11;101792.13;;;14.27;43.85
34961;BME280;30789;52.030;7.110;2023-05-02T11:07:16;101793.13;;;15.10;41.88
34961;BME280;30789;52.030;7.110;2023-05-02T11:09:43;101792.72;;;16.08;41.41
34961;BME280;30789;52.030;7.110;2023-05-02T11:12:09;101791.16;;;16.28;40.61
34961;BME280;30789;52.030;7.110;2023-05-02T11:14:48;101790.16;;;15.43;40.71
34961;BME280;30789;52.030;7.110;2023-05-02T11:17:15;101793.66;;;14.72;41.64
34961;BME280;30789;52.030;7.110;2023-05-02T11:22:51;101792.72;;;16.25;38.61
34961;BME280;30789;52.030;7.110;2023-05-02T11:25:28;101789.84;;;15.66;39.09
34961;BME280;30789;52.030;7.110;2023-05-02T11:27:55;101798.72;;;16.87;37.63
34961;BME280;30789;52.030;7.110;2023-05-02T11:30:40;101793.94;;;16.28;37.59
34961;BME280;30789;52.030;7.110;2023-05-02T11:33:15;101807.97;;;17.81;36.32
34961;BME280;30789;52.030;7.110;2023-05-02T11:35:43;101806.28;;;16.79;37.29
34961;BME280;30789;52.030;7.110;2023-05-02T11:38:19;101810.13;;;15.80;36.97
34961;BME280;30789;52.030;7.110;2023-05-02T11:40:53;101812.50;;;15.85;38.73
34961;BME280;30789;52.030;7.110;2023-05-02T11:43:21;101816.50;;;17.32;36.52
34961;BME280;30789;52.030;7.110;2023-05-02T11:45:49;101816.09;;;15.86;37.36
34961;BME280;30789;52.030;7.110;2023-05-02T11:48:18;101813.66;;;14.95;38.42
34961;BME280;30789;52.030;7.110;2023-05-02T11:50:47;101816.56;;;15.12;38.65
34961;BME280;30789;52.030;7.110;2023-05-02T11:53:17;101821.78;;;16.45;39.39
34961;BME280;30789;52.030;7.110;2023-05-02T11:55:46;101824.72;;;17.77;36.38
34961;BME280;30789;52.030;7.110;2023-05-02T11:58:15;101832.00;;;17.50;36.63
34961;BME280;30789;52.030;7.110;2023-05-02T12:00:42;101826.84;;;17.31;37.11
34961;BME280;30789;52.030;7.110;2023-05-02T12:03:22;101833.19;;;15.91;38.32
34961;BME280;30789;52.030;7.110;2023-05-02T12:05:50;101838.97;;;15.44;39.62
34961;BME280;30789;52.030;7.110;2023-05-02T12:08:19;101834.69;;;15.64;39.50
34961;BME280;30789;52.030;7.110;2023-05-02T12:10:46;101832.53;;;16.61;37.64
34961;BME280;30789;52.030;7.110;2023-05-02T12:13:14;101846.84;;;16.56;38.11
34961;BME280;30789;52.030;7.110;2023-05-02T12:15:40;101851.63;;;18.12;35.47
34961;BME280;30789;52.030;7.110;2023-05-02T12:18:07;101854.00;;;16.78;36.49
34961;BME280;30789;52.030;7.110;2023-05-02T12:20:34;101851.88;;;15.91;36.70
34961;BME280;30789;52.030;7.110;2023-05-02T12:23:03;101845.97;;;15.24;38.76
34961;BME280;30789;52.030;7.110;2023-05-02T12:25:36;101847.50;;;15.18;38.41
34961;BME280;30789;52.030;7.110;2023-05-02T12:28:03;101841.88;;;15.72;37.80
34961;BME280;30789;52.030;7.110;2023-05-02T12:30:31;101840.88;;;17.03;35.53
34961;BME280;30789;52.030;7.110;2023-05-02T12:32:59;101848.28;;;17.66;35.30
34961;BME280;30789;52.030;7.110;2023-05-02T12:35:27;101842.88;;;16.81;35.77
34961;BME280;30789;52.030;7.110;2023-05-02T12:38:07;101852.19;;;15.68;37.65
34961;BME280;30789;52.030;7.110;2023-05-02T12:40:36;101848.78;;;16.34;35.36
34961;BME280;30789;52.030;7.110;2023-05-02T12:43:04;101863.50;;;16.35;35.66
34961;BME280;30789;52.030;7.110;2023-05-02T12:45:34;101866.03;;;15.61;36.56
34961;BME280;30789;52.030;7.110;2023-05-02T12:48:02;101860.69;;;15.31;37.66
34961;BME280;30789;52.030;7.110;2023-05-02T12:50:35;101864.00;;;14.90;38.42
34961;BME280;30789;52.030;7.110;2023-05-02T12:53:03;101866.94;;;15.83;39.29
34961;BME280;30789;52.030;7.110;2023-05-02T12:55:32;101872.28;;;17.03;37.92
34961;BME280;30789;52.030;7.110;2023-05-02T12:58:01;101874.19;;;16.15;36.41
34961;BME280;30789;52.030;7.110;2023-05-02T13:00:27;101876.63;;;15.38;38.09
34961;BME280;30789;52.030;7.110;2023-05-02T13:02:54;101883.91;;;15.02;37.20